Terminal Aerodrome Forecast
Issued by NWS

Home | Current Version | Previous Version | Text Only | Print | Product List | Glossary On
Versions: 1 2 3 4 5 6 7 8 9 10 11 12 13 14 15 16 17 18 19
000
FTUS43 KDLH 191300 AAA
TAFBRD
TAF AMD
KBRD 191324Z 1913/2012 16018G25KT P6SM -RA SCT025 OVC050
      TEMPO 1913/1917 5SM -RA OVC015
     FM191800 18014G22KT P6SM VCSH BKN035
     FM192000 20011KT P6SM SCT035 BKN060
     FM192300 21009KT P6SM SKC=

USA.gov is the U.S. government's official web portal to all federal, state and local government web resources and services.